sensor_id;sensor_type;location;lat;lon;timestamp;P1;durP1;ratioP1;P2;durP2;ratioP2
28459;SDS011;32528;45.712;9.192;2023-04-03T00:00:40;11.20;;;5.03;;
28459;SDS011;32528;45.712;9.192;2023-04-03T00:02:40;12.98;;;4.90;;
28459;SDS011;32528;45.712;9.192;2023-04-03T00:04:41;9.95;;;5.30;;
28459;SDS011;32528;45.712;9.192;2023-04-03T00:06:42;7.78;;;4.63;;
28459;SDS011;32528;45.712;9.192;2023-04-03T00:08:43;9.60;;;4.65;;
28459;SDS011;32528;45.712;9.192;2023-04-03T00:10:43;9.18;;;4.80;;
28459;SDS011;32528;45.712;9.192;2023-04-03T00:12:44;10.02;;;5.07;;
28459;SDS011;32528;45.712;9.192;2023-04-03T00:14:45;7.57;;;4.40;;
28459;SDS011;32528;45.712;9.192;2023-04-03T00:16:46;14.93;;;5.07;;
28459;SDS011;32528;45.712;9.192;2023-04-03T00:18:46;12.05;;;5.57;;
28459;SDS011;32528;45.712;9.192;2023-04-03T00:20:47;7.35;;;4.65;;
28459;SDS011;32528;45.712;9.192;2023-04-03T00:22:48;10.38;;;4.95;;
28459;SDS011;32528;45.712;9.192;2023-04-03T00:24:49;7.32;;;4.20;;
28459;SDS011;32528;45.712;9.192;2023-04-03T00:26:50;15.77;;;5.28;;
28459;SDS011;32528;45.712;9.192;2023-04-03T00:28:51;11.32;;;6.35;;
28459;SDS011;32528;45.712;9.192;2023-04-03T00:30:51;10.30;;;4.68;;
28459;SDS011;32528;45.712;9.192;2023-04-03T00:32:52;9.25;;;4.60;;
28459;SDS011;32528;45.712;9.192;2023-04-03T00:34:53;8.07;;;4.47;;
28459;SDS011;32528;45.712;9.192;2023-04-03T00:36:54;8.38;;;5.00;;
28459;SDS011;32528;45.712;9.192;2023-04-03T00:38:55;10.13;;;5.70;;
28459;SDS011;32528;45.712;9.192;2023-04-03T00:40:55;10.05;;;5.00;;
28459;SDS011;32528;45.712;9.192;2023-04-03T00:42:57;7.95;;;4.18;;
28459;SDS011;32528;45.712;9.192;2023-04-03T00:47:01;10.38;;;5.00;;
28459;SDS011;32528;45.712;9.192;2023-04-03T00:49:04;8.13;;;4.38;;
28459;SDS011;32528;45.712;9.192;2023-04-03T00:51:06;9.80;;;4.18;;
28459;SDS011;32528;45.712;9.192;2023-04-03T00:53:11;7.97;;;4.30;;
28459;SDS011;32528;45.712;9.192;2023-04-03T00:55:16;12.02;;;5.68;;
28459;SDS011;32528;45.712;9.192;2023-04-03T00:57:17;9.90;;;4.82;;
28459;SDS011;32528;45.712;9.192;2023-04-03T00:59:21;11.43;;;5.70;;
28459;SDS011;32528;45.712;9.192;2023-04-03T01:01:27;9.25;;;4.93;;
28459;SDS011;32528;45.712;9.192;2023-04-03T01:03:29;11.40;;;5.45;;
28459;SDS011;32528;45.712;9.192;2023-04-03T01:05:32;11.00;;;4.93;;
28459;SDS011;32528;45.712;9.192;2023-04-03T01:07:33;13.90;;;5.70;;
28459;SDS011;32528;45.712;9.192;2023-04-03T01:09:37;11.77;;;5.47;;
28459;SDS011;32528;45.712;9.192;2023-04-03T01:11:38;8.30;;;4.28;;
28459;SDS011;32528;45.712;9.192;2023-04-03T01:13:40;7.22;;;4.35;;
28459;SDS011;32528;45.712;9.192;2023-04-03T01:15:41;7.90;;;4.50;;
28459;SDS011;32528;45.712;9.192;2023-04-03T01:17:43;15.23;;;5.72;;
28459;SDS011;32528;45.712;9.192;2023-04-03T01:19:50;7.10;;;4.72;;
28459;SDS011;32528;45.712;9.192;2023-04-03T01:22:04;8.80;;;4.90;;
28459;SDS011;32528;45.712;9.192;2023-04-03T01:26:43;13.75;;;4.65;;
28459;SDS011;32528;45.712;9.192;2023-04-03T01:28:45;9.95;;;5.22;;
28459;SDS011;32528;45.712;9.192;2023-04-03T01:31:29;9.65;;;4.95;;
28459;SDS011;32528;45.712;9.192;2023-04-03T01:33:16;10.43;;;5.00;;
28459;SDS011;32528;45.712;9.192;2023-04-03T01:35:18;10.95;;;5.25;;
28459;SDS011;32528;45.712;9.192;2023-04-03T01:37:19;9.68;;;5.25;;
28459;SDS011;32528;45.712;9.192;2023-04-03T01:39:20;9.25;;;5.03;;
28459;SDS011;32528;45.712;9.192;2023-04-03T01:41:21;12.20;;;6.13;;
28459;SDS011;32528;45.712;9.192;2023-04-03T01:43:23;9.63;;;4.97;;
28459;SDS011;32528;45.712;9.192;2023-04-03T01:45:24;10.50;;;5.38;;
28459;SDS011;32528;45.712;9.192;2023-04-03T01:47:25;10.30;;;5.50;;
28459;SDS011;32528;45.712;9.192;2023-04-03T01:49:25;10.73;;;4.68;;
28459;SDS011;32528;45.712;9.192;2023-04-03T01:51:26;9.90;;;4.80;;
28459;SDS011;32528;45.712;9.192;2023-04-03T01:53:27;15.02;;;4.90;;
28459;SDS011;32528;45.712;9.192;2023-04-03T01:55:28;7.93;;;4.22;;
28459;SDS011;32528;45.712;9.192;2023-04-03T01:57:29;9.82;;;4.57;;
28459;SDS011;32528;45.712;9.192;2023-04-03T01:59:30;14.23;;;5.13;;
28459;SDS011;32528;45.712;9.192;2023-04-03T02:01:30;10.43;;;4.82;;
28459;SDS011;32528;45.712;9.192;2023-04-03T02:03:32;15.73;;;5.20;;
28459;SDS011;32528;45.712;9.192;2023-04-03T02:05:32;12.93;;;5.38;;
28459;SDS011;32528;45.712;9.192;2023-04-03T02:07:33;19.33;;;4.57;;
28459;SDS011;32528;45.712;9.192;2023-04-03T02:09:34;9.40;;;4.78;;
28459;SDS011;32528;45.712;9.192;2023-04-03T02:11:35;8.85;;;4.50;;
28459;SDS011;32528;45.712;9.192;2023-04-03T02:13:36;10.88;;;5.07;;
28459;SDS011;32528;45.712;9.192;2023-04-03T02:15:39;7.35;;;4.43;;
28459;SDS011;32528;45.712;9.192;2023-04-03T02:17:40;10.43;;;4.65;;
28459;SDS011;32528;45.712;9.192;2023-04-03T02:19:41;8.63;;;5.25;;
28459;SDS011;32528;45.712;9.192;2023-04-03T02:21:42;8.85;;;4.93;;
28459;SDS011;32528;45.712;9.192;2023-04-03T02:23:42;9.05;;;4.55;;
28459;SDS011;32528;45.712;9.192;2023-04-03T02:25:43;9.82;;;4.97;;
28459;SDS011;32528;45.712;9.192;2023-04-03T02:27:44;13.02;;;6.22;;
28459;SDS011;32528;45.712;9.192;2023-04-03T02:29:45;9.18;;;4.50;;
28459;SDS011;32528;45.712;9.192;2023-04-03T02:31:47;8.75;;;5.10;;
28459;SDS011;32528;45.712;9.192;2023-04-03T02:33:48;8.63;;;4.55;;
28459;SDS011;32528;45.712;9.192;2023-04-03T02:35:53;9.48;;;4.65;;
28459;SDS011;32528;45.712;9.192;2023-04-03T02:37:56;12.25;;;5.20;;
28459;SDS011;32528;45.712;9.192;2023-04-03T02:39:57;16.10;;;5.70;;
28459;SDS011;32528;45.712;9.192;2023-04-03T02:41:58;9.68;;;4.88;;
28459;SDS011;32528;45.712;9.192;2023-04-03T02:44:01;13.75;;;4.53;;
28459;SDS011;32528;45.712;9.192;2023-04-03T02:46:03;9.88;;;5.03;;
28459;SDS011;32528;45.712;9.192;2023-04-03T02:48:04;11.18;;;4.70;;
28459;SDS011;32528;45.712;9.192;2023-04-03T02:50:05;10.35;;;5.20;;
28459;SDS011;32528;45.712;9.192;2023-04-03T02:52:06;9.23;;;4.85;;
28459;SDS011;32528;45.712;9.192;2023-04-03T02:54:07;8.80;;;5.20;;
28459;SDS011;32528;45.712;9.192;2023-04-03T02:56:11;7.90;;;4.72;;
28459;SDS011;32528;45.712;9.192;2023-04-03T02:58:12;13.27;;;4.55;;
28459;SDS011;32528;45.712;9.192;2023-04-03T03:00:13;8.75;;;4.28;;
28459;SDS011;32528;45.712;9.192;2023-04-03T03:02:14;8.50;;;4.88;;
28459;SDS011;32528;45.712;9.192;2023-04-03T03:04:15;9.00;;;4.57;;
28459;SDS011;32528;45.712;9.192;2023-04-03T03:06:16;6.82;;;3.78;;
28459;SDS011;32528;45.712;9.192;2023-04-03T03:08:17;10.82;;;4.47;;
28459;SDS011;32528;45.712;9.192;2023-04-03T03:10:20;7.63;;;3.95;;
28459;SDS011;32528;45.712;9.192;2023-04-03T03:12:21;9.82;;;4.47;;
28459;SDS011;32528;45.712;9.192;2023-04-03T03:14:23;12.57;;;4.47;;
28459;SDS011;32528;45.712;9.192;2023-04-03T03:16:24;11.85;;;5.03;;
28459;SDS011;32528;45.712;9.192;2023-04-03T03:18:25;12.98;;;4.20;;
28459;SDS011;32528;45.712;9.192;2023-04-03T03:20:26;8.35;;;4.10;;
28459;SDS011;32528;45.712;9.192;2023-04-03T03:22:28;8.65;;;5.05;;
28459;SDS011;32528;45.712;9.192;2023-04-03T03:24:29;11.50;;;5.15;;
28459;SDS011;32528;45.712;9.192;2023-04-03T03:26:30;12.45;;;4.70;;
28459;SDS011;32528;45.712;9.192;2023-04-03T03:28:31;10.13;;;4.03;;
28459;SDS011;32528;45.712;9.192;2023-04-03T03:30:33;8.38;;;5.00;;
28459;SDS011;32528;45.712;9.192;2023-04-03T03:32:35;9.18;;;4.60;;
28459;SDS011;32528;45.712;9.192;2023-04-03T03:34:36;9.05;;;4.63;;
28459;SDS011;32528;45.712;9.192;2023-04-03T03:36:36;7.40;;;4.55;;
28459;SDS011;32528;45.712;9.192;2023-04-03T03:38:37;10.75;;;4.43;;
28459;SDS011;32528;45.712;9.192;2023-04-03T03:40:39;7.28;;;4.07;;
28459;SDS011;32528;45.712;9.192;2023-04-03T03:42:40;8.38;;;4.68;;
28459;SDS011;32528;45.712;9.192;2023-04-03T03:44:41;8.02;;;4.72;;
28459;SDS011;32528;45.712;9.192;2023-04-03T03:46:42;8.50;;;4.47;;
28459;SDS011;32528;45.712;9.192;2023-04-03T03:48:43;8.32;;;4.32;;
28459;SDS011;32528;45.712;9.192;2023-04-03T03:50:44;6.95;;;3.90;;
28459;SDS011;32528;45.712;9.192;2023-04-03T03:52:46;7.93;;;4.45;;
28459;SDS011;32528;45.712;9.192;2023-04-03T03:54:46;9.40;;;4.90;;
28459;SDS011;32528;45.712;9.192;2023-04-03T03:56:49;9.45;;;4.63;;
28459;SDS011;32528;45.712;9.192;2023-04-03T03:58:51;7.28;;;3.58;;
28459;SDS011;32528;45.712;9.192;2023-04-03T04:00:52;11.95;;;4.32;;
28459;SDS011;32528;45.712;9.192;2023-04-03T04:02:53;7.50;;;4.70;;
28459;SDS011;32528;45.712;9.192;2023-04-03T04:04:56;9.68;;;4.68;;
28459;SDS011;32528;45.712;9.192;2023-04-03T04:06:57;10.80;;;4.50;;
28459;SDS011;32528;45.712;9.192;2023-04-03T04:09:00;8.63;;;3.90;;
28459;SDS011;32528;45.712;9.192;2023-04-03T04:11:02;6.68;;;4.00;;
28459;SDS011;32528;45.712;9.192;2023-04-03T04:13:03;7.97;;;3.75;;
28459;SDS011;32528;45.712;9.192;2023-04-03T04:15:05;9.52;;;4.00;;
28459;SDS011;32528;45.712;9.192;2023-04-03T04:17:07;11.35;;;4.43;;
28459;SDS011;32528;45.712;9.192;2023-04-03T04:19:09;9.25;;;3.85;;
28459;SDS011;32528;45.712;9.192;2023-04-03T04:21:11;11.73;;;4.50;;
28459;SDS011;32528;45.712;9.192;2023-04-03T04:23:13;7.90;;;3.47;;
28459;SDS011;32528;45.712;9.192;2023-04-03T04:25:14;8.05;;;3.55;;
28459;SDS011;32528;45.712;9.192;2023-04-03T04:27:15;7.95;;;3.92;;
28459;SDS011;32528;45.712;9.192;2023-04-03T04:29:16;11.63;;;4.30;;
28459;SDS011;32528;45.712;9.192;2023-04-03T04:31:20;7.45;;;4.05;;
28459;SDS011;32528;45.712;9.192;2023-04-03T04:33:23;9.57;;;4.22;;
28459;SDS011;32528;45.712;9.192;2023-04-03T04:35:23;11.70;;;4.68;;
28459;SDS011;32528;45.712;9.192;2023-04-03T04:37:25;7.95;;;4.18;;
28459;SDS011;32528;45.712;9.192;2023-04-03T04:39:27;10.30;;;3.95;;
28459;SDS011;32528;45.712;9.192;2023-04-03T04:41:30;7.57;;;3.83;;
28459;SDS011;32528;45.712;9.192;2023-04-03T04:43:31;9.60;;;4.65;;
28459;SDS011;32528;45.712;9.192;2023-04-03T04:45:32;15.15;;;5.07;;
28459;SDS011;32528;45.712;9.192;2023-04-03T04:47:33;11.68;;;5.63;;
28459;SDS011;32528;45.712;9.192;2023-04-03T04:49:35;7.75;;;3.47;;
28459;SDS011;32528;45.712;9.192;2023-04-03T04:51:36;10.65;;;5.60;;
28459;SDS011;32528;45.712;9.192;2023-04-03T04:53:37;8.77;;;4.35;;
28459;SDS011;32528;45.712;9.192;2023-04-03T04:55:39;8.07;;;4.70;;
28459;SDS011;32528;45.712;9.192;2023-04-03T04:57:40;10.10;;;4.68;;
28459;SDS011;32528;45.712;9.192;2023-04-03T04:59:41;6.93;;;3.47;;
28459;SDS011;32528;45.712;9.192;2023-04-03T05:01:42;11.23;;;4.97;;
28459;SDS011;32528;45.712;9.192;2023-04-03T05:03:48;7.00;;;3.83;;
28459;SDS011;32528;45.712;9.192;2023-04-03T05:05:51;11.77;;;4.32;;
28459;SDS011;32528;45.712;9.192;2023-04-03T05:07:52;9.50;;;5.05;;
28459;SDS011;32528;45.712;9.192;2023-04-03T05:09:53;8.27;;;4.00;;
28459;SDS011;32528;45.712;9.192;2023-04-03T05:11:54;8.57;;;4.40;;
28459;SDS011;32528;45.712;9.192;2023-04-03T05:13:59;7.55;;;4.28;;
28459;SDS011;32528;45.712;9.192;2023-04-03T05:16:01;10.25;;;4.30;;
28459;SDS011;32528;45.712;9.192;2023-04-03T05:18:02;7.78;;;3.95;;
28459;SDS011;32528;45.712;9.192;2023-04-03T05:20:04;9.40;;;4.20;;
28459;SDS011;32528;45.712;9.192;2023-04-03T05:22:05;13.13;;;5.47;;
28459;SDS011;32528;45.712;9.192;2023-04-03T05:24:06;17.52;;;8.30;;
28459;SDS011;32528;45.712;9.192;2023-04-03T05:26:11;30.40;;;10.88;;
28459;SDS011;32528;45.712;9.192;2023-04-03T05:28:14;27.75;;;12.10;;
28459;SDS011;32528;45.712;9.192;2023-04-03T05:30:15;23.15;;;9.20;;
28459;SDS011;32528;45.712;9.192;2023-04-03T05:32:16;23.20;;;6.05;;
28459;SDS011;32528;45.712;9.192;2023-04-03T05:34:20;22.65;;;6.57;;
28459;SDS011;32528;45.712;9.192;2023-04-03T05:36:24;12.27;;;5.97;;
28459;SDS011;32528;45.712;9.192;2023-04-03T05:38:30;17.13;;;6.60;;
28459;SDS011;32528;45.712;9.192;2023-04-03T05:40:32;13.13;;;5.55;;
28459;SDS011;32528;45.712;9.192;2023-04-03T05:42:33;25.83;;;7.47;;
28459;SDS011;32528;45.712;9.192;2023-04-03T05:44:34;7.43;;;4.32;;
28459;SDS011;32528;45.712;9.192;2023-04-03T05:46:36;8.38;;;4.50;;
28459;SDS011;32528;45.712;9.192;2023-04-03T05:48:39;13.45;;;5.80;;
28459;SDS011;32528;45.712;9.192;2023-04-03T05:50:40;9.60;;;4.57;;
28459;SDS011;32528;45.712;9.192;2023-04-03T05:52:45;10.73;;;4.55;;
28459;SDS011;32528;45.712;9.192;2023-04-03T05:54:49;8.20;;;4.35;;
28459;SDS011;32528;45.712;9.192;2023-04-03T05:56:56;8.23;;;3.88;;
28459;SDS011;32528;45.712;9.192;2023-04-03T05:58:58;27.95;;;4.88;;
28459;SDS011;32528;45.712;9.192;2023-04-03T06:00:59;10.80;;;3.92;;
28459;SDS011;32528;45.712;9.192;2023-04-03T06:03:00;12.32;;;4.68;;
28459;SDS011;32528;45.712;9.192;2023-04-03T06:05:02;6.82;;;3.03;;
28459;SDS011;32528;45.712;9.192;2023-04-03T06:07:03;12.82;;;3.97;;
28459;SDS011;32528;45.712;9.192;2023-04-03T06:09:04;5.45;;;3.17;;
28459;SDS011;32528;45.712;9.192;2023-04-03T06:11:04;6.57;;;3.55;;
28459;SDS011;32528;45.712;9.192;2023-04-03T06:13:07;13.13;;;4.03;;
28459;SDS011;32528;45.712;9.192;2023-04-03T06:15:08;9.65;;;4.45;;
28459;SDS011;32528;45.712;9.192;2023-04-03T06:17:10;8.95;;;4.30;;
28459;SDS011;32528;45.712;9.192;2023-04-03T06:19:12;10.25;;;5.07;;
28459;SDS011;32528;45.712;9.192;2023-04-03T06:21:18;11.02;;;4.80;;
28459;SDS011;32528;45.712;9.192;2023-04-03T06:23:18;16.83;;;5.38;;
28459;SDS011;32528;45.712;9.192;2023-04-03T06:25:19;24.35;;;4.43;;
28459;SDS011;32528;45.712;9.192;2023-04-03T06:27:21;12.68;;;4.57;;
28459;SDS011;32528;45.712;9.192;2023-04-03T06:29:22;17.48;;;5.00;;
28459;SDS011;32528;45.712;9.192;2023-04-03T06:31:23;15.05;;;4.53;;
28459;SDS011;32528;45.712;9.192;2023-04-03T06:33:25;10.05;;;5.40;;
28459;SDS011;32528;45.712;9.192;2023-04-03T06:35:26;7.30;;;4.07;;
28459;SDS011;32528;45.712;9.192;2023-04-03T06:37:28;21.23;;;5.30;;
28459;SDS011;32528;45.712;9.192;2023-04-03T06:39:30;32.13;;;6.28;;
28459;SDS011;32528;45.712;9.192;2023-04-03T06:41:31;29.35;;;5.38;;
28459;SDS011;32528;45.712;9.192;2023-04-03T06:43:32;18.35;;;5.30;;
28459;SDS011;32528;45.712;9.192;2023-04-03T06:45:33;18.40;;;4.00;;
28459;SDS011;32528;45.712;9.192;2023-04-03T06:47:34;13.20;;;5.28;;
28459;SDS011;32528;45.712;9.192;2023-04-03T06:49:35;9.70;;;3.83;;
28459;SDS011;32528;45.712;9.192;2023-04-03T06:51:37;16.88;;;5.18;;
28459;SDS011;32528;45.712;9.192;2023-04-03T06:53:37;13.90;;;5.13;;
28459;SDS011;32528;45.712;9.192;2023-04-03T06:55:38;14.68;;;4.97;;
28459;SDS011;32528;45.712;9.192;2023-04-03T06:57:39;20.20;;;5.18;;
28459;SDS011;32528;45.712;9.192;2023-04-03T06:59:40;10.65;;;4.68;;
28459;SDS011;32528;45.712;9.192;2023-04-03T07:01:41;18.27;;;4.10;;
28459;SDS011;32528;45.712;9.192;2023-04-03T07:03:42;7.45;;;3.17;;
28459;SDS011;32528;45.712;9.192;2023-04-03T07:05:42;8.35;;;3.40;;
28459;SDS011;32528;45.712;9.192;2023-04-03T07:07:44;18.95;;;3.15;;
28459;SDS011;32528;45.712;9.192;2023-04-03T07:09:45;8.38;;;3.03;;
28459;SDS011;32528;45.712;9.192;2023-04-03T07:11:48;9.25;;;3.05;;
28459;SDS011;32528;45.712;9.192;2023-04-03T07:13:49;7.55;;;2.97;;
28459;SDS011;32528;45.712;9.192;2023-04-03T07:15:50;5.35;;;2.28;;
28459;SDS011;32528;45.712;9.192;2023-04-03T07:17:51;12.77;;;2.72;;
28459;SDS011;32528;45.712;9.192;2023-04-03T07:19:52;5.53;;;2.60;;
28459;SDS011;32528;45.712;9.192;2023-04-03T07:21:52;8.10;;;2.42;;
28459;SDS011;32528;45.712;9.192;2023-04-03T07:23:54;9.18;;;2.40;;
28459;SDS011;32528;45.712;9.192;2023-04-03T07:25:55;6.65;;;2.85;;
28459;SDS011;32528;45.712;9.192;2023-04-03T07:27:56;3.60;;;2.13;;
28459;SDS011;32528;45.712;9.192;2023-04-03T07:29:57;6.65;;;3.03;;
28459;SDS011;32528;45.712;9.192;2023-04-03T07:31:58;4.85;;;2.75;;
28459;SDS011;32528;45.712;9.192;2023-04-03T07:33:59;4.35;;;1.95;;
28459;SDS011;32528;45.712;9.192;2023-04-03T07:35:59;6.25;;;2.53;;
28459;SDS011;32528;45.712;9.192;2023-04-03T07:38:01;8.77;;;2.47;;
28459;SDS011;32528;45.712;9.192;2023-04-03T07:40:04;4.90;;;2.60;;
28459;SDS011;32528;45.712;9.192;2023-04-03T07:42:05;7.10;;;2.43;;
28459;SDS011;32528;45.712;9.192;2023-04-03T07:44:06;2.97;;;1.60;;
28459;SDS011;32528;45.712;9.192;2023-04-03T07:46:09;20.08;;;3.38;;
28459;SDS011;32528;45.712;9.192;2023-04-03T07:48:11;3.70;;;1.80;;
28459;SDS011;32528;45.712;9.192;2023-04-03T07:50:13;12.40;;;1.95;;
28459;SDS011;32528;45.712;9.192;2023-04-03T07:52:15;7.90;;;2.22;;
28459;SDS011;32528;45.712;9.192;2023-04-03T07:54:15;4.93;;;1.70;;
28459;SDS011;32528;45.712;9.192;2023-04-03T07:56:16;5.38;;;1.80;;
28459;SDS011;32528;45.712;9.192;2023-04-03T07:58:17;3.53;;;1.35;;
28459;SDS011;32528;45.712;9.192;2023-04-03T08:00:19;5.65;;;2.28;;
28459;SDS011;32528;45.712;9.192;2023-04-03T08:02:20;11.98;;;2.10;;
28459;SDS011;32528;45.712;9.192;2023-04-03T08:04:21;4.57;;;1.77;;
28459;SDS011;32528;45.712;9.192;2023-04-03T08:06:21;4.65;;;2.08;;
28459;SDS011;32528;45.712;9.192;2023-04-03T08:08:22;4.38;;;1.73;;
28459;SDS011;32528;45.712;9.192;2023-04-03T08:10:23;3.72;;;1.98;;
28459;SDS011;32528;45.712;9.192;2023-04-03T08:12:25;7.05;;;1.73;;
28459;SDS011;32528;45.712;9.192;2023-04-03T08:14:30;3.33;;;1.75;;
28459;SDS011;32528;45.712;9.192;2023-04-03T08:16:31;4.22;;;1.73;;
28459;SDS011;32528;45.712;9.192;2023-04-03T08:18:32;5.15;;;2.05;;
28459;SDS011;32528;45.712;9.192;2023-04-03T08:20:33;8.00;;;2.05;;
28459;SDS011;32528;45.712;9.192;2023-04-03T08:22:34;4.47;;;2.10;;
28459;SDS011;32528;45.712;9.192;2023-04-03T08:24:34;4.90;;;1.73;;
28459;SDS011;32528;45.712;9.192;2023-04-03T08:26:35;5.95;;;1.70;;
28459;SDS011;32528;45.712;9.192;2023-04-03T08:28:36;4.05;;;1.73;;
28459;SDS011;32528;45.712;9.192;2023-04-03T08:30:40;3.90;;;1.40;;
28459;SDS011;32528;45.712;9.192;2023-04-03T08:32:42;4.75;;;1.60;;
28459;SDS011;32528;45.712;9.192;2023-04-03T08:34:44;7.03;;;2.25;;
28459;SDS011;32528;45.712;9.192;2023-04-03T08:36:44;4.93;;;1.95;;
28459;SDS011;32528;45.712;9.192;2023-04-03T08:38:45;4.22;;;1.85;;
28459;SDS011;32528;45.712;9.192;2023-04-03T08:40:46;5.97;;;2.03;;
28459;SDS011;32528;45.712;9.192;2023-04-03T08:42:52;5.15;;;1.50;;
28459;SDS011;32528;45.712;9.192;2023-04-03T08:45:10;13.43;;;2.53;;
28459;SDS011;32528;45.712;9.192;2023-04-03T08:47:39;5.93;;;1.60;;
28459;SDS011;32528;45.712;9.192;2023-04-03T08:50:18;7.05;;;1.88;;
28459;SDS011;32528;45.712;9.192;2023-04-03T08:54:30;5.32;;;2.08;;
28459;SDS011;32528;45.712;9.192;2023-04-03T08:56:35;8.45;;;2.22;;
28459;SDS011;32528;45.712;9.192;2023-04-03T08:58:48;5.70;;;1.83;;
28459;SDS011;32528;45.712;9.192;2023-04-03T09:00:57;6.38;;;2.22;;
28459;SDS011;32528;45.712;9.192;2023-04-03T09:03:10;5.45;;;2.22;;
28459;SDS011;32528;45.712;9.192;2023-04-03T09:06:00;5.03;;;2.28;;
28459;SDS011;32528;45.712;9.192;2023-04-03T09:07:44;6.03;;;1.85;;
28459;SDS011;32528;45.712;9.192;2023-04-03T09:09:48;3.75;;;1.95;;
28459;SDS011;32528;45.712;9.192;2023-04-03T09:16:56;4.13;;;1.80;;
28459;SDS011;32528;45.712;9.192;2023-04-03T09:21:37;7.20;;;1.92;;
28459;SDS011;32528;45.712;9.192;2023-04-03T09:23:46;4.13;;;1.50;;
28459;SDS011;32528;45.712;9.192;2023-04-03T09:25:56;4.57;;;1.75;;
28459;SDS011;32528;45.712;9.192;2023-04-03T09:28:05;4.90;;;2.15;;
28459;SDS011;32528;45.712;9.192;2023-04-03T09:30:16;3.13;;;1.77;;
28459;SDS011;32528;45.712;9.192;2023-04-03T09:32:26;3.40;;;1.50;;
28459;SDS011;32528;45.712;9.192;2023-04-03T09:34:32;4.30;;;1.85;;
28459;SDS011;32528;45.712;9.192;2023-04-03T09:38:59;6.05;;;1.85;;
28459;SDS011;32528;45.712;9.192;2023-04-03T09:41:16;4.28;;;2.05;;
28459;SDS011;32528;45.712;9.192;2023-04-03T09:43:20;3.15;;;1.83;;
28459;SDS011;32528;45.712;9.192;2023-04-03T09:45:33;18.20;;;2.78;;
28459;SDS011;32528;45.712;9.192;2023-04-03T09:47:35;7.35;;;2.17;;
28459;SDS011;32528;45.712;9.192;2023-04-03T09:49:37;5.20;;;2.35;;
28459;SDS011;32528;45.712;9.192;2023-04-03T09:51:38;7.50;;;2.70;;
28459;SDS011;32528;45.712;9.192;2023-04-03T09:53:42;4.72;;;2.20;;
28459;SDS011;32528;45.712;9.192;2023-04-03T09:55:44;5.00;;;2.42;;
28459;SDS011;32528;45.712;9.192;2023-04-03T09:57:46;6.82;;;2.42;;
28459;SDS011;32528;45.712;9.192;2023-04-03T09:59:58;4.70;;;2.28;;
28459;SDS011;32528;45.712;9.192;2023-04-03T10:02:43;6.32;;;2.35;;
28459;SDS011;32528;45.712;9.192;2023-04-03T10:04:25;5.20;;;2.33;;
28459;SDS011;32528;45.712;9.192;2023-04-03T10:11:21;4.50;;;2.22;;
28459;SDS011;32528;45.712;9.192;2023-04-03T10:13:23;6.10;;;2.42;;
28459;SDS011;32528;45.712;9.192;2023-04-03T10:15:24;9.98;;;2.40;;
28459;SDS011;32528;45.712;9.192;2023-04-03T10:21:55;4.10;;;2.40;;
28459;SDS011;32528;45.712;9.192;2023-04-03T10:29:07;4.03;;;1.85;;
28459;SDS011;32528;45.712;9.192;2023-04-03T10:31:30;3.33;;;1.60;;
28459;SDS011;32528;45.712;9.192;2023-04-03T10:42:56;6.20;;;2.33;;
28459;SDS011;32528;45.712;9.192;2023-04-03T10:45:10;9.02;;;2.05;;
28459;SDS011;32528;45.712;9.192;2023-04-03T10:47:20;5.20;;;2.22;;
28459;SDS011;32528;45.712;9.192;2023-04-03T10:50:15;6.05;;;2.28;;
28459;SDS011;32528;45.712;9.192;2023-04-03T10:52:06;7.00;;;2.13;;
28459;SDS011;32528;45.712;9.192;2023-04-03T10:54:42;5.72;;;2.17;;
28459;SDS011;32528;45.712;9.192;2023-04-03T10:57:12;5.18;;;2.60;;
28459;SDS011;32528;45.712;9.192;2023-04-03T11:01:48;10.32;;;2.53;;
28459;SDS011;32528;45.712;9.192;2023-04-03T11:03:56;9.30;;;2.78;;
28459;SDS011;32528;45.712;9.192;2023-04-03T11:05:59;7.03;;;2.88;;
28459;SDS011;32528;45.712;9.192;2023-04-03T11:08:07;9.85;;;2.80;;
28459;SDS011;32528;45.712;9.192;2023-04-03T11:10:30;5.13;;;2.60;;
28459;SDS011;32528;45.712;9.192;2023-04-03T11:12:38;6.30;;;2.60;;
28459;SDS011;32528;45.712;9.192;2023-04-03T11:14:46;5.78;;;2.47;;
28459;SDS011;32528;45.712;9.192;2023-04-03T11:16:54;5.65;;;2.50;;
28459;SDS011;32528;45.712;9.192;2023-04-03T11:19:23;11.82;;;2.80;;
28459;SDS011;32528;45.712;9.192;2023-04-03T11:23:39;4.50;;;2.40;;
28459;SDS011;32528;45.712;9.192;2023-04-03T11:25:41;4.20;;;2.65;;
28459;SDS011;32528;45.712;9.192;2023-04-03T11:27:44;4.88;;;2.00;;
28459;SDS011;32528;45.712;9.192;2023-04-03T11:29:49;7.97;;;2.25;;
28459;SDS011;32528;45.712;9.192;2023-04-03T11:34:13;6.63;;;2.88;;
28459;SDS011;32528;45.712;9.192;2023-04-03T11:36:19;6.38;;;2.47;;
28459;SDS011;32528;45.712;9.192;2023-04-03T11:38:25;8.20;;;2.17;;
28459;SDS011;32528;45.712;9.192;2023-04-03T11:40:34;6.38;;;2.80;;
28459;SDS011;32528;45.712;9.192;2023-04-03T11:42:38;12.80;;;2.63;;
28459;SDS011;32528;45.712;9.192;2023-04-03T11:44:41;4.78;;;2.30;;
28459;SDS011;32528;45.712;9.192;2023-04-03T11:46:52;3.83;;;1.92;;
28459;SDS011;32528;45.712;9.192;2023-04-03T11:48:54;4.13;;;1.88;;
28459;SDS011;32528;45.712;9.192;2023-04-03T11:50:57;6.07;;;2.47;;
28459;SDS011;32528;45.712;9.192;2023-04-03T11:55:41;11.35;;;2.25;;
28459;SDS011;32528;45.712;9.192;2023-04-03T11:57:43;5.63;;;2.80;;
28459;SDS011;32528;45.712;9.192;2023-04-03T11:59:45;4.88;;;2.85;;
28459;SDS011;32528;45.712;9.192;2023-04-03T12:04:04;5.72;;;2.58;;
28459;SDS011;32528;45.712;9.192;2023-04-03T12:10:27;6.93;;;2.25;;
28459;SDS011;32528;45.712;9.192;2023-04-03T12:12:36;6.93;;;2.78;;
28459;SDS011;32528;45.712;9.192;2023-04-03T12:18:46;5.40;;;2.10;;
28459;SDS011;32528;45.712;9.192;2023-04-03T12:20:56;3.80;;;1.92;;
28459;SDS011;32528;45.712;9.192;2023-04-03T12:30:21;8.93;;;2.22;;
28459;SDS011;32528;45.712;9.192;2023-04-03T12:34:56;5.03;;;2.35;;
28459;SDS011;32528;45.712;9.192;2023-04-03T12:37:34;10.05;;;2.63;;
28459;SDS011;32528;45.712;9.192;2023-04-03T12:42:03;5.88;;;2.65;;
28459;SDS011;32528;45.712;9.192;2023-04-03T12:47:00;9.43;;;3.20;;
28459;SDS011;32528;45.712;9.192;2023-04-03T12:49:02;7.85;;;2.75;;
28459;SDS011;32528;45.712;9.192;2023-04-03T12:51:42;4.38;;;2.50;;
28459;SDS011;32528;45.712;9.192;2023-04-03T12:53:45;3.78;;;2.20;;
28459;SDS011;32528;45.712;9.192;2023-04-03T12:55:46;11.98;;;2.80;;
28459;SDS011;32528;45.712;9.192;2023-04-03T12:57:47;4.63;;;2.15;;
28459;SDS011;32528;45.712;9.192;2023-04-03T12:59:48;5.68;;;2.00;;
28459;SDS011;32528;45.712;9.192;2023-04-03T13:01:56;5.85;;;2.30;;
28459;SDS011;32528;45.712;9.192;2023-04-03T13:03:59;6.22;;;2.10;;
28459;SDS011;32528;45.712;9.192;2023-04-03T13:06:01;7.35;;;2.50;;
28459;SDS011;32528;45.712;9.192;2023-04-03T13:08:05;9.63;;;2.70;;
28459;SDS011;32528;45.712;9.192;2023-04-03T13:10:16;9.80;;;1.90;;
28459;SDS011;32528;45.712;9.192;2023-04-03T13:12:17;5.47;;;2.60;;
28459;SDS011;32528;45.712;9.192;2023-04-03T13:14:20;14.68;;;2.65;;
28459;SDS011;32528;45.712;9.192;2023-04-03T13:16:22;5.25;;;2.60;;
28459;SDS011;32528;45.712;9.192;2023-04-03T13:20:28;3.20;;;1.80;;
28459;SDS011;32528;45.712;9.192;2023-04-03T13:22:35;5.10;;;1.92;;
28459;SDS011;32528;45.712;9.192;2023-04-03T13:24:43;4.63;;;1.95;;
28459;SDS011;32528;45.712;9.192;2023-04-03T13:26:46;3.22;;;1.50;;
28459;SDS011;32528;45.712;9.192;2023-04-03T13:28:47;11.18;;;2.13;;
28459;SDS011;32528;45.712;9.192;2023-04-03T13:33:00;4.45;;;1.88;;
28459;SDS011;32528;45.712;9.192;2023-04-03T13:35:23;6.35;;;2.20;;
28459;SDS011;32528;45.712;9.192;2023-04-03T13:37:33;10.88;;;2.00;;
28459;SDS011;32528;45.712;9.192;2023-04-03T13:39:36;4.32;;;2.00;;
28459;SDS011;32528;45.712;9.192;2023-04-03T13:41:39;8.68;;;1.92;;